Time;durP1;ratioP1;P1;durP2;ratioP2;P2;SDS_P1;SDS_P2;PMS_P1;PMS_P2;Temp;Humidity;BMP_temperature;BMP_pressure;BME280_temperature;BME280_humidity;BME280_pressure;Samples;Min_cycle;Max_cycle;Signal;HPM_P1;HPM_P2
2021/09/28 00:01:46;;;;;;;17.10;8.15;;;12.00;99.90;;;13.10;100.00;101111.44;6097907;23;20026;-88
2021/09/28 00:04:12;;;;;;;20.65;8.93;;;12.00;99.90;;;13.10;100.00;101103.03;6071654;23;20011;-86
2021/09/28 00:06:38;;;;;;;19.52;8.35;;;12.00;99.90;;;13.10;100.00;101107.81;6072304;23;20028;-85
2021/09/28 00:09:04;;;;;;;24.30;8.05;;;12.00;99.90;;;13.03;100.00;101099.22;6073201;23;20014;-87
2021/09/28 00:11:31;;;;;;;24.58;8.48;;;11.90;99.90;;;12.99;100.00;101106.72;6072770;23;20014;-88
2021/09/28 00:13:59;;;;;;;22.88;9.02;;;11.90;99.90;;;12.98;100.00;101108.72;6071851;23;20014;-87
2021/09/28 00:16:25;;;;;;;20.23;8.60;;;11.90;99.90;;;12.98;100.00;101111.50;6098127;23;20014;-88
2021/09/28 00:18:51;;;;;;;13.63;7.25;;;11.90;99.90;;;12.98;100.00;101107.88;6098019;23;20349;-84
2021/09/28 00:21:17;;;;;;;18.92;7.65;;;11.80;99.90;;;12.92;100.00;101114.94;6072592;23;20002;-88
2021/09/28 00:23:43;;;;;;;19.13;7.88;;;11.80;99.90;;;12.88;100.00;101114.88;6098701;23;20381;-86
2021/09/28 00:26:10;;;;;;;17.33;7.28;;;11.90;99.90;;;12.95;100.00;101114.22;6072463;23;20014;-86
2021/09/28 00:28:35;;;;;;;20.58;7.50;;;11.80;99.90;;;12.87;100.00;101124.47;6073153;23;20454;-87
2021/09/28 00:31:02;;;;;;;14.23;6.75;;;11.80;99.90;;;12.89;100.00;101119.31;6098802;23;20010;-85
2021/09/28 00:33:28;;;;;;;16.73;6.55;;;11.80;99.90;;;12.87;100.00;101118.03;6079113;23;19999;-82
2021/09/28 00:35:55;;;;;;;15.68;5.88;;;11.70;99.90;;;12.93;100.00;101122.19;6097759;23;20010;-85
2021/09/28 00:38:21;;;;;;;18.35;5.95;;;11.70;99.90;;;12.82;100.00;101123.91;6078267;23;20021;-87
2021/09/28 00:40:48;;;;;;;12.57;5.97;;;11.60;99.90;;;12.79;100.00;101116.22;6097845;23;20086;-86
2021/09/28 00:43:14;;;;;;;15.20;5.43;;;11.60;99.90;;;12.74;100.00;101122.09;6098559;23;20392;-87
2021/09/28 00:45:40;;;;;;;13.65;5.93;;;11.60;99.90;;;12.71;100.00;101120.03;6074610;23;20018;-85
2021/09/28 00:48:06;;;;;;;13.95;6.45;;;11.50;99.90;;;12.71;100.00;101120.03;6083511;23;20034;-88
2021/09/28 00:50:32;;;;;;;14.40;4.95;;;11.60;99.90;;;12.69;100.00;101124.00;6074115;23;20034;-88
2021/09/28 00:52:59;;;;;;;19.23;5.53;;;11.50;99.90;;;12.69;100.00;101126.81;6073340;23;20007;-86
2021/09/28 00:55:27;;;;;;;17.90;6.32;;;11.50;99.90;;;12.66;100.00;101121.09;6099155;23;20021;-87
2021/09/28 00:58:02;;;;;;;12.82;5.22;;;11.50;99.90;;;12.53;100.00;101125.97;6073657;23;20326;-84
2021/09/28 01:00:30;;;;;;;14.10;5.83;;;11.50;99.90;;;12.53;100.00;101125.16;6098943;23;20383;-89
2021/09/28 01:02:57;;;;;;;12.75;5.90;;;11.50;99.90;;;12.58;100.00;101122.09;6072673;23;20010;-87
2021/09/28 01:05:23;;;;;;;14.25;5.13;;;11.50;99.90;;;12.64;100.00;101123.47;6073038;23;20022;-86
2021/09/28 01:07:49;;;;;;;19.33;4.88;;;11.50;99.90;;;12.60;100.00;101125.34;6072802;23;20010;-88
2021/09/28 01:10:15;;;;;;;13.88;5.32;;;11.50;99.90;;;12.58;100.00;101130.50;6098388;23;20014;-87
2021/09/28 01:12:41;;;;;;;12.68;5.13;;;11.50;99.90;;;12.54;100.00;101126.78;6098202;23;20142;-86
2021/09/28 01:15:09;;;;;;;12.43;4.65;;;11.50;99.90;;;12.53;100.00;101127.97;6072588;23;20014;-88
2021/09/28 01:17:35;;;;;;;14.00;5.68;;;11.40;99.90;;;12.49;100.00;101127.06;6072964;23;20014;-87
2021/09/28 01:20:00;;;;;;;13.38;4.95;;;11.40;99.90;;;12.43;100.00;101132.09;6072871;23;20006;-87
2021/09/28 01:22:26;;;;;;;15.07;4.28;;;11.50;99.90;;;12.53;100.00;101139.16;6098486;23;20003;-86
2021/09/28 01:24:52;;;;;;;18.40;4.40;;;11.40;99.90;;;12.48;100.00;101142.25;6073343;23;20087;-86
2021/09/28 01:27:18;;;;;;;12.98;4.65;;;11.40;99.90;;;12.45;100.00;101140.97;6072821;23;20079;-86
2021/09/28 01:29:44;;;;;;;16.67;4.45;;;11.40;99.90;;;12.46;100.00;101142.59;6073208;23;20038;-86
2021/09/28 01:32:11;;;;;;;17.42;4.45;;;11.30;99.90;;;12.46;100.00;101141.78;6075491;23;20010;-85
2021/09/28 01:34:37;;;;;;;18.27;4.82;;;11.40;99.90;;;12.44;100.00;101142.16;6079830;23;20011;-84
2021/09/28 01:37:03;;;;;;;18.70;4.75;;;11.30;99.90;;;12.42;100.00;101146.47;6075243;23;20011;-88
2021/09/28 01:39:29;;;;;;;16.73;3.65;;;11.30;99.90;;;12.41;100.00;101145.66;6073495;23;20440;-87
2021/09/28 01:41:56;;;;;;;13.77;4.05;;;11.30;99.90;;;12.38;100.00;101146.38;6074128;23;20021;-87
2021/09/28 01:44:22;;;;;;;12.15;3.92;;;11.20;99.90;;;12.37;100.00;101144.75;6075738;23;20065;-86
2021/09/28 01:46:50;;;;;;;8.13;3.58;;;11.20;99.90;;;12.29;100.00;101151.34;6073155;23;20006;-88
2021/09/28 01:49:20;;;;;;;15.63;4.22;;;11.20;99.90;;;12.30;100.00;101147.34;6101011;23;20007;-86
2021/09/28 01:51:46;;;;;;;13.48;3.78;;;11.20;99.90;;;12.32;100.00;101147.00;6075956;23;20010;-86
2021/09/28 01:54:13;;;;;;;11.27;3.85;;;11.20;99.90;;;12.24;100.00;101145.97;6074957;23;20033;-88
2021/09/28 01:56:39;;;;;;;11.90;3.80;;;11.20;99.90;;;12.28;100.00;101151.69;6075414;23;20009;-87
2021/09/28 01:59:07;;;;;;;10.50;2.85;;;11.20;99.90;;;12.33;100.00;101152.22;6101466;23;20036;-88
2021/09/28 02:01:35;;;;;;;14.02;3.22;;;11.30;99.90;;;12.34;100.00;101153.88;6078568;23;20041;-90
2021/09/28 02:04:00;;;;;;;13.80;3.58;;;11.30;99.90;;;12.34;100.00;101148.25;6088385;23;20030;-87
2021/09/28 02:06:29;;;;;;;14.25;3.22;;;11.30;99.90;;;12.35;100.00;101154.69;6079525;23;20034;-85
2021/09/28 02:08:55;;;;;;;13.52;3.72;;;11.30;99.90;;;12.29;100.00;101159.75;6080079;23;20034;-85
2021/09/28 02:11:21;;;;;;;11.98;3.60;;;11.30;99.90;;;12.32;100.00;101158.22;6106094;23;20010;-87
2021/09/28 02:13:49;;;;;;;14.18;3.53;;;11.20;99.90;;;12.37;100.00;101160.72;6105015;23;20006;-86
2021/09/28 02:16:18;;;;;;;13.00;3.15;;;11.30;99.90;;;12.34;100.00;101155.84;6077825;23;20010;-86
2021/09/28 02:18:44;;;;;;;17.52;3.08;;;11.30;99.90;;;12.37;100.00;101161.56;6104441;23;20138;-87
2021/09/28 02:21:10;;;;;;;11.63;3.67;;;11.30;99.90;;;12.36;100.00;101157.13;6080430;23;20407;-85
2021/09/28 02:23:37;;;;;;;14.43;3.65;;;11.30;99.90;;;12.39;100.00;101164.00;6078543;23;20007;-87
2021/09/28 02:26:04;;;;;;;11.18;3.53;;;11.30;99.90;;;12.43;100.00;101164.91;6079563;23;20010;-85
2021/09/28 02:28:29;;;;;;;10.68;3.67;;;11.40;99.90;;;12.39;100.00;101164.00;6079149;23;20010;-86
2021/09/28 02:30:56;;;;;;;14.68;3.40;;;11.40;99.90;;;12.44;100.00;101167.34;6078126;23;20531;-86
2021/09/28 02:33:22;;;;;;;14.38;3.28;;;11.40;99.90;;;12.37;100.00;101157.94;6077413;23;20030;-86
2021/09/28 02:35:47;;;;;;;12.02;3.20;;;11.40;99.90;;;12.33;100.00;101160.63;6078120;23;20026;-85
2021/09/28 02:38:13;;;;;;;12.75;3.25;;;11.40;99.90;;;12.31;100.00;101162.16;6104216;23;20014;-86
2021/09/28 02:40:39;;;;;;;13.57;3.40;;;11.40;99.90;;;12.28;100.00;101160.91;6078208;23;20064;-86
2021/09/28 02:43:07;;;;;;;18.85;3.33;;;11.40;99.90;;;12.33;100.00;101159.84;6104302;23;20088;-85
2021/09/28 02:45:33;;;;;;;16.15;3.95;;;11.40;99.90;;;12.30;100.00;101164.16;6078356;23;20041;-87
2021/09/28 02:47:58;;;;;;;13.95;3.58;;;11.30;99.90;;;12.33;100.00;101163.44;6076788;23;20020;-85
2021/09/28 02:50:24;;;;;;;10.43;2.78;;;11.30;99.90;;;12.32;100.00;101172.22;6076680;23;20014;-86
2021/09/28 02:52:50;;;;;;;14.10;3.15;;;11.30;99.90;;;12.31;100.00;101164.97;6076826;23;20029;-85
2021/09/28 02:55:16;;;;;;;14.48;3.78;;;11.30;99.90;;;12.27;100.00;101164.03;6077743;23;20013;-87
2021/09/28 02:57:42;;;;;;;13.20;3.33;;;11.30;99.90;;;12.24;100.00;101164.75;6079438;23;20029;-86
2021/09/28 03:00:10;;;;;;;13.73;3.08;;;11.20;99.90;;;12.23;100.00;101166.78;6081015;23;20002;-85
2021/09/28 03:02:36;;;;;;;16.48;2.67;;;11.20;99.90;;;12.26;100.00;101166.06;6080750;23;20007;-87
2021/09/28 03:05:02;;;;;;;13.65;2.92;;;11.20;99.90;;;12.23;100.00;101169.56;6080796;23;20016;-86
2021/09/28 03:07:28;;;;;;;15.65;3.00;;;11.20;99.90;;;12.24;100.00;101159.97;6080816;23;20018;-88
2021/09/28 03:09:55;;;;;;;10.50;2.72;;;11.20;99.90;;;12.23;100.00;101168.75;6080568;23;20011;-87
2021/09/28 03:12:21;;;;;;;11.68;3.00;;;11.20;99.90;;;12.24;100.00;101168.38;6080384;23;20014;-87
2021/09/28 03:14:47;;;;;;;12.70;3.15;;;11.20;99.90;;;12.25;100.00;101164.41;6080448;23;20069;-86
2021/09/28 03:17:13;;;;;;;13.23;3.45;;;11.20;99.90;;;12.21;100.00;101176.69;6080796;23;20021;-86
2021/09/28 03:19:38;;;;;;;11.05;3.13;;;11.10;99.90;;;12.17;100.00;101164.59;6081157;23;20017;-84
2021/09/28 03:22:04;;;;;;;12.00;3.63;;;11.10;99.90;;;12.19;100.00;101171.44;6079866;23;20325;-86
2021/09/28 03:24:30;;;;;;;16.25;3.40;;;11.10;99.90;;;12.17;100.00;101167.38;6081349;23;20006;-85
2021/09/28 03:26:56;;;;;;;17.27;3.95;;;11.10;99.90;;;12.12;100.00;101160.84;6081282;23;20010;-85
2021/09/28 03:29:22;;;;;;;14.27;3.10;;;11.20;99.90;;;12.20;100.00;101166.66;6107252;23;20029;-86
2021/09/28 03:31:48;;;;;;;15.63;2.88;;;11.20;99.90;;;12.17;100.00;101170.19;6080934;23;20006;-85
2021/09/28 03:34:15;;;;;;;17.52;3.17;;;11.20;99.90;;;12.21;100.00;101174.69;6082168;23;20007;-85
2021/09/28 03:36:40;;;;;;;15.63;3.40;;;11.10;99.90;;;12.18;100.00;101169.00;6081606;23;20013;-86
2021/09/28 03:39:32;;;;;;;12.23;2.88;;;11.10;99.90;;;12.14;100.00;101172.50;6083416;23;20006;-84
2021/09/28 03:41:58;;;;;;;18.40;3.78;;;11.20;99.90;;;12.09;100.00;101177.56;6083949;23;20026;-87
2021/09/28 03:44:24;;;;;;;11.82;3.58;;;11.20;99.90;;;12.12;100.00;101182.44;6084317;23;20069;-84
2021/09/28 03:46:50;;;;;;;16.73;4.25;;;11.10;99.90;;;12.06;100.00;101178.28;6082265;23;20017;-85
2021/09/28 03:49:16;;;;;;;11.15;3.17;;;11.10;99.90;;;12.12;100.00;101185.25;6084403;23;20018;-88
2021/09/28 03:51:42;;;;;;;12.65;3.13;;;11.10;99.90;;;12.10;100.00;101191.19;6092307;23;20029;-83
2021/09/28 03:54:08;;;;;;;13.48;2.88;;;11.10;99.90;;;12.08;100.00;101195.50;6087666;23;20010;-82
2021/09/28 03:56:33;;;;;;;14.82;3.22;;;11.10;99.90;;;12.08;100.00;101192.72;6083186;23;20026;-83
2021/09/28 03:58:59;;;;;;;13.82;3.50;;;11.10;99.90;;;12.09;100.00;101197.16;6097869;23;20002;-83
2021/09/28 04:01:25;;;;;;;17.63;4.07;;;11.10;99.90;;;12.03;100.00;101191.00;6095641;23;20022;-84
2021/09/28 04:03:51;;;;;;;17.40;3.90;;;11.10;99.90;;;12.03;100.00;101196.59;6094050;23;20137;-85
2021/09/28 04:06:17;;;;;;;16.83;3.67;;;11.10;99.90;;;11.98;100.00;101199.63;6087828;23;20006;-87
2021/09/28 04:08:43;;;;;;;13.75;3.25;;;11.10;99.90;;;12.08;100.00;101201.13;6082747;23;20066;-84
2021/09/28 04:11:20;;;;;;;14.73;3.10;;;11.10;99.90;;;12.02;100.00;101208.13;6082029;23;20021;-85
2021/09/28 04:13:53;;;;;;;14.63;3.03;;;11.10;99.90;;;12.03;100.00;101212.56;6081852;23;20029;-87
2021/09/28 04:16:20;;;;;;;14.15;3.08;;;11.10;99.90;;;12.03;100.00;101215.38;6081360;23;20018;-88
2021/09/28 04:18:46;;;;;;;13.95;3.22;;;11.10;99.90;;;12.01;100.00;101212.09;6082388;23;20061;-87
2021/09/28 04:21:13;;;;;;;23.02;3.65;;;11.10;99.90;;;11.94;100.00;101215.53;6082204;23;20002;-86
2021/09/28 04:23:40;;;;;;;12.43;3.03;;;11.00;99.90;;;11.97;100.00;101214.81;6110532;23;20033;-86
2021/09/28 04:26:07;;;;;;;15.90;3.55;;;11.10;99.90;;;11.95;100.00;101217.13;6087060;23;20422;-86
2021/09/28 04:28:35;;;;;;;12.43;3.28;;;11.10;99.90;;;11.98;100.00;101221.22;6086403;23;20011;-86
2021/09/28 04:31:00;;;;;;;18.27;3.97;;;11.00;99.90;;;11.91;100.00;101219.00;6084414;23;20025;-85
2021/09/28 04:33:26;;;;;;;12.32;3.47;;;11.00;99.90;;;11.92;100.00;101228.22;6085552;23;20097;-85
2021/09/28 04:35:52;;;;;;;13.98;3.58;;;10.90;99.90;;;11.93;100.00;101219.47;6086376;23;20010;-86
2021/09/28 04:38:18;;;;;;;12.80;4.03;;;11.00;99.90;;;11.97;100.00;101222.41;6087170;23;20066;-86
2021/09/28 04:40:44;;;;;;;10.20;3.10;;;11.00;99.90;;;11.94;100.00;101237.09;6110893;23;20369;-86
2021/09/28 04:43:10;;;;;;;10.63;3.65;;;11.00;99.90;;;11.88;100.00;101227.31;6078847;23;20006;-86
2021/09/28 04:45:35;;;;;;;8.90;2.78;;;10.90;99.90;;;11.97;100.00;101230.78;6075999;23;20021;-86
2021/09/28 04:48:01;;;;;;;13.63;3.30;;;11.00;99.90;;;11.92;100.00;101231.84;6100163;23;20441;-85
2021/09/28 04:50:27;;;;;;;14.68;3.00;;;11.00;99.90;;;11.94;100.00;101235.13;6074487;23;20091;-84
2021/09/28 04:52:53;;;;;;;16.60;3.13;;;10.90;99.90;;;11.89;100.00;101240.94;6075451;23;20006;-84
2021/09/28 04:55:19;;;;;;;15.27;3.40;;;10.90;99.90;;;11.82;100.00;101239.91;6074798;23;20078;-86
2021/09/28 04:57:45;;;;;;;12.07;2.83;;;10.90;99.90;;;11.79;100.00;101237.81;6104738;23;20033;-84
2021/09/28 05:00:11;;;;;;;10.15;3.08;;;10.90;99.90;;;11.82;100.00;101243.50;6109277;23;20010;-85
2021/09/28 05:02:38;;;;;;;12.38;3.35;;;10.90;99.90;;;11.77;100.00;101240.16;6081283;23;20006;-86
2021/09/28 05:05:06;;;;;;;15.15;3.50;;;10.80;99.90;;;11.78;100.00;101242.63;6107514;23;20062;-86
2021/09/28 05:07:31;;;;;;;14.23;3.88;;;10.80;99.90;;;11.80;100.00;101245.88;6082158;23;20116;-86
2021/09/28 05:09:57;;;;;;;14.25;3.38;;;10.70;99.90;;;11.76;100.00;101247.72;6107012;23;20456;-85
2021/09/28 05:12:23;;;;;;;15.77;3.45;;;10.70;99.90;;;11.78;100.00;101251.00;6079651;23;20102;-85
2021/09/28 05:14:49;;;;;;;11.50;3.83;;;10.70;99.90;;;11.71;100.00;101252.75;6079915;23;20065;-87
2021/09/28 05:17:15;;;;;;;13.45;3.05;;;10.70;99.90;;;11.79;100.00;101249.81;6103763;23;20033;-85
2021/09/28 05:19:40;;;;;;;17.23;3.92;;;10.80;99.90;;;11.81;100.00;101244.72;6081610;23;20006;-87
2021/09/28 05:22:09;;;;;;;12.00;3.40;;;10.70;99.90;;;11.77;100.00;101249.38;6103685;23;20459;-85
2021/09/28 05:24:38;;;;;;;13.75;3.55;;;10.80;99.90;;;11.77;100.00;101254.16;6049165;23;20016;-84
2021/09/28 05:27:06;;;;;;;11.93;3.95;;;10.70;99.90;;;11.74;100.00;101252.88;6048365;23;20010;-86
2021/09/28 05:29:34;;;;;;;28.55;3.88;;;10.70;99.90;;;11.73;100.00;101250.41;6022759;23;20015;-85
2021/09/28 05:32:00;;;;;;;16.10;3.60;;;10.70;99.90;;;11.71;100.00;101259.19;6049221;23;20086;-85
2021/09/28 05:34:27;;;;;;;13.93;3.08;;;10.70;99.90;;;11.74;100.00;101263.25;6023736;23;20003;-84
2021/09/28 05:36:56;;;;;;;14.45;3.95;;;10.60;99.90;;;11.69;100.00;101267.06;6049865;23;20004;-87
2021/09/28 05:39:22;;;;;;;13.13;3.88;;;10.70;99.90;;;11.68;100.00;101265.44;6025236;23;20036;-83
2021/09/28 05:41:48;;;;;;;13.63;3.83;;;10.60;99.90;;;11.67;100.00;101271.38;6023460;23;20008;-85
2021/09/28 05:44:14;;;;;;;12.38;3.88;;;10.70;99.90;;;11.61;100.00;101274.41;6024061;23;20015;-88
2021/09/28 05:46:40;;;;;;;14.45;3.70;;;10.60;99.90;;;11.68;100.00;101275.81;6025567;23;20030;-85
2021/09/28 05:49:09;;;;;;;16.75;4.55;;;10.70;99.90;;;11.77;100.00;101271.75;6025156;23;20015;-85
2021/09/28 05:51:37;;;;;;;9.48;3.85;;;10.70;99.90;;;11.69;100.00;101269.84;6049963;23;20030;-86
2021/09/28 05:54:06;;;;;;;14.38;3.90;;;10.70;99.90;;;11.83;100.00;101275.94;6048227;23;20034;-86
2021/09/28 05:56:31;;;;;;;14.70;4.35;;;10.80;99.90;;;11.85;100.00;101275.56;6046139;23;20012;-88
2021/09/28 05:58:57;;;;;;;17.15;3.83;;;10.80;99.90;;;11.84;100.00;101277.59;6024529;23;20350;-87
2021/09/28 06:01:24;;;;;;;9.82;3.20;;;10.80;99.90;;;11.89;100.00;101282.13;6026734;23;20017;-86
2021/09/28 06:03:50;;;;;;;18.00;5.22;;;10.80;99.90;;;11.89;100.00;101274.53;6052099;23;20063;-86
2021/09/28 06:06:23;;;;;;;18.65;3.35;;;10.80;99.90;;;11.95;100.00;101284.31;6023455;23;20015;-86
2021/09/28 06:08:49;;;;;;;13.68;3.83;;;10.80;99.90;;;11.99;100.00;101284.44;6022406;23;20095;-87
2021/09/28 06:11:15;;;;;;;13.95;3.72;;;10.90;99.90;;;12.08;100.00;101283.13;6022827;23;20098;-85
2021/09/28 06:13:41;;;;;;;10.02;3.70;;;11.00;99.90;;;12.13;100.00;101282.09;6022977;23;20040;-86
2021/09/28 06:16:07;;;;;;;13.18;3.95;;;11.00;99.90;;;12.21;100.00;101283.91;6024652;23;20011;-86
2021/09/28 06:18:37;;;;;;;15.20;4.43;;;11.10;99.90;;;12.26;100.00;101282.88;6022798;23;20039;-85
2021/09/28 06:21:03;;;;;;;16.02;3.80;;;11.20;99.90;;;12.37;100.00;101292.41;6048165;23;20082;-86
2021/09/28 06:23:28;;;;;;;16.58;3.22;;;11.20;99.90;;;12.32;100.00;101279.47;6048797;23;20063;-86
2021/09/28 06:25:55;;;;;;;18.30;3.72;;;11.30;99.90;;;12.41;100.00;101284.91;6022782;23;20011;-87
2021/09/28 06:28:20;;;;;;;11.90;3.55;;;11.40;99.90;;;12.63;100.00;101282.38;6023646;23;20015;-85
2021/09/28 06:30:47;;;;;;;18.50;3.95;;;11.50;99.90;;;12.67;100.00;101288.91;6022084;23;20033;-86
2021/09/28 06:33:13;;;;;;;11.52;4.15;;;11.60;99.90;;;12.77;100.00;101284.78;6046462;23;20011;-88
2021/09/28 06:35:39;;;;;;;13.50;3.50;;;11.70;99.90;;;13.01;100.00;101295.84;6020980;23;20044;-87
2021/09/28 06:38:06;;;;;;;10.77;3.30;;;11.80;99.90;;;13.09;100.00;101292.13;6022619;23;20012;-86
2021/09/28 06:40:34;;;;;;;8.10;3.30;;;11.90;99.90;;;13.29;100.00;101298.66;6020152;23;20011;-88
2021/09/28 06:43:01;;;;;;;8.43;2.80;;;12.00;99.90;;;13.48;100.00;101293.16;6022216;23;20438;-88
2021/09/28 06:45:29;;;;;;;11.48;3.47;;;12.10;99.90;;;13.66;100.00;101297.19;6024806;23;20015;-85
2021/09/28 06:47:56;;;;;;;11.55;2.88;;;12.30;99.90;;;13.89;100.00;101297.34;6032428;23;20013;-86
2021/09/28 06:50:22;;;;;;;11.27;2.90;;;12.50;99.90;;;13.93;100.00;101300.25;6055930;23;20007;-87
2021/09/28 06:52:49;;;;;;;14.00;2.83;;;12.60;99.90;;;14.07;98.77;101303.38;6056223;23;20055;-85
2021/09/28 06:55:18;;;;;;;8.27;2.35;;;12.70;99.90;;;14.31;98.94;101299.50;6027005;23;20011;-87
2021/09/28 06:57:44;;;;;;;13.63;3.17;;;12.90;99.90;;;14.47;97.46;101303.13;6021940;23;20314;-84
2021/09/28 07:00:12;;;;;;;14.35;3.08;;;13.00;99.90;;;14.60;96.95;101307.41;6022409;23;20003;-87
2021/09/28 07:02:37;;;;;;;10.20;2.83;;;13.10;99.90;;;14.71;96.56;101297.19;6047934;23;20012;-87
2021/09/28 07:05:14;;;;;;;8.18;2.60;;;13.20;99.90;;;14.70;95.88;101295.59;6047424;23;20042;-87
2021/09/28 07:07:41;;;;;;;12.88;2.88;;;13.30;99.90;;;15.04;96.08;101305.91;6021892;23;20057;-86
2021/09/28 07:10:11;;;;;;;7.15;2.90;;;13.50;99.90;;;15.36;95.42;101305.66;6046891;23;20011;-88
2021/09/28 07:12:37;;;;;;;9.77;2.70;;;13.70;99.90;;;15.47;93.49;101303.88;6022072;23;20307;-86
2021/09/28 07:15:06;;;;;;;14.88;3.33;;;14.00;99.90;;;15.47;92.71;101304.69;6023238;23;20038;-87
2021/09/28 07:17:32;;;;;;;9.43;2.92;;;14.10;99.90;;;15.58;92.07;101307.69;6038612;23;20035;-85
2021/09/28 07:19:58;;;;;;;13.32;3.47;;;14.20;99.90;;;15.72;89.32;101296.69;6031971;23;20015;-86
2021/09/28 07:22:26;;;;;;;12.18;3.13;;;14.40;99.90;;;15.90;89.64;101309.03;6020945;23;20015;-87
2021/09/28 07:24:55;;;;;;;10.38;2.65;;;14.50;99.90;;;16.01;90.68;101307.22;6020907;23;20051;-88
2021/09/28 07:27:22;;;;;;;11.73;2.33;;;14.60;99.90;;;16.19;88.52;101313.94;6019467;23;20011;-85
2021/09/28 07:29:48;;;;;;;9.48;2.80;;;14.80;99.90;;;16.25;87.99;101308.75;6020455;23;20074;-85
2021/09/28 07:32:15;;;;;;;11.48;2.72;;;14.80;99.90;;;16.20;88.43;101301.47;6044732;23;20430;-85
2021/09/28 07:34:54;;;;;;;8.95;2.25;;;14.90;99.90;;;16.00;89.36;101302.75;6043252;23;20350;-87
2021/09/28 07:37:26;;;;;;;6.82;2.20;;;14.90;99.90;;;16.46;86.81;101309.06;6045263;23;20078;-86
2021/09/28 07:39:53;;;;;;;5.00;1.92;;;15.10;99.90;;;16.86;86.67;101309.22;6020527;23;20007;-86
2021/09/28 07:42:30;;;;;;;;;;;;;;;;;;;;;
2021/09/28 07:44:58;;;;;;;11.05;2.63;;;15.40;99.90;;;16.72;84.77;101313.88;6048136;23;20039;-82
2021/09/28 07:47:34;;;;;;;11.73;2.85;;;15.50;99.90;;;16.73;87.24;101307.84;6022149;23;20072;-86
2021/09/28 07:50:00;;;;;;;8.95;2.53;;;15.50;99.90;;;16.90;86.57;101312.06;6047781;23;20019;-85
2021/09/28 07:52:29;;;;;;;11.38;2.67;;;15.70;99.90;;;17.00;84.54;101311.41;6020789;23;20015;-88
2021/09/28 07:54:55;;;;;;;10.73;3.17;;;15.80;99.90;;;16.91;84.37;101316.53;6022463;23;20015;-84
2021/09/28 07:57:21;;;;;;;7.85;2.00;;;15.90;99.90;;;17.28;82.39;101311.69;6022661;23;20027;-85
2021/09/28 07:59:47;;;;;;;8.82;2.40;;;16.00;99.90;;;17.30;80.88;101309.31;6023374;23;20105;-84
2021/09/28 08:02:17;;;;;;;7.40;2.17;;;16.10;99.90;;;17.66;80.72;101318.94;6022795;23;20011;-84
2021/09/28 14:06:30;;;;;;;4.88;1.42;;;19.10;99.90;;;20.41;54.13;101097.00;6066217;23;20033;-88
2021/09/28 14:08:56;;;;;;;8.75;1.50;;;19.00;99.90;;;20.36;54.02;101089.72;6078631;23;20093;-85
2021/09/28 14:11:21;;;;;;;5.47;1.83;;;18.90;99.90;;;20.55;53.37;101081.91;6077528;23;20054;-86
2021/09/28 14:13:47;;;;;;;4.95;1.50;;;18.90;99.90;;;20.66;53.89;101089.13;6078816;23;20066;-86
2021/09/28 14:16:14;;;;;;;5.93;1.13;;;19.00;99.90;;;20.61;52.78;101092.41;6079682;23;20317;-86
2021/09/28 14:18:40;;;;;;;7.30;1.27;;;19.10;99.90;;;20.75;53.78;101089.44;6078884;23;20397;-83
2021/09/28 14:21:07;;;;;;;7.93;1.55;;;19.10;99.90;;;20.65;54.76;101086.69;6077120;23;20010;-83
2021/09/28 14:23:34;;;;;;;7.43;1.42;;;19.20;99.90;;;20.82;53.07;101085.75;6076763;23;20037;-86
2021/09/28 14:26:01;;;;;;;5.97;1.40;;;19.30;99.90;;;21.06;53.06;101081.91;6076961;23;20341;-85
2021/09/28 14:28:28;;;;;;;6.30;1.75;;;19.40;99.90;;;20.96;53.66;101077.94;6075881;23;20017;-86
2021/09/28 14:30:54;;;;;;;5.13;1.30;;;19.40;99.90;;;20.53;55.27;101085.16;6101420;23;20014;-85
2021/09/28 14:33:20;;;;;;;7.28;1.70;;;19.20;99.90;;;20.50;55.13;101071.78;6099586;23;20380;-85
2021/09/28 14:35:46;;;;;;;5.57;1.42;;;19.10;99.90;;;20.13;55.58;101058.19;6075874;23;20010;-86
2021/09/28 14:38:12;;;;;;;6.15;1.75;;;18.90;99.90;;;20.28;55.83;101061.81;6099289;23;20010;-85
2021/09/28 14:40:38;;;;;;;8.52;1.35;;;18.80;99.90;;;20.42;55.38;101056.84;6075611;23;20007;-86
2021/09/28 14:43:04;;;;;;;4.95;1.40;;;18.80;99.90;;;20.18;54.44;101060.63;6101584;23;20061;-86
2021/09/28 14:45:30;;;;;;;5.30;1.42;;;18.80;99.90;;;19.99;55.70;101058.28;6075027;23;20014;-86
2021/09/28 14:47:57;;;;;;;6.18;1.35;;;18.70;99.90;;;20.33;55.33;101047.97;6074667;23;20451;-84
2021/09/28 14:50:25;;;;;;;5.47;1.52;;;18.80;99.90;;;20.15;56.19;101057.78;6073499;23;20033;-88
2021/09/28 14:52:51;;;;;;;11.93;1.65;;;18.70;99.90;;;19.96;55.45;101059.13;6098420;23;20006;-85
2021/09/28 14:55:17;;;;;;;7.18;1.77;;;18.70;99.90;;;19.79;53.19;101052.28;6073403;23;20022;-85
2021/09/28 14:57:43;;;;;;;5.95;1.63;;;18.60;99.90;;;19.53;55.05;101049.16;6073174;23;20006;-87
2021/09/28 15:00:12;;;;;;;6.75;1.58;;;18.40;99.90;;;19.63;55.08;101049.13;6073438;23;20029;-86
2021/09/28 15:02:38;;;;;;;9.05;1.33;;;18.30;99.90;;;19.62;55.99;101043.88;6098323;23;20007;-85
2021/09/28 15:05:04;;;;;;;6.55;1.23;;;18.20;99.90;;;19.49;56.51;101040.66;6073368;23;20385;-87
2021/09/28 15:07:30;;;;;;;9.32;1.60;;;18.20;99.90;;;19.42;56.18;101037.88;6073634;23;20057;-85
2021/09/28 15:09:56;;;;;;;4.80;1.13;;;18.10;99.90;;;19.51;56.44;101040.25;6073906;23;20492;-84
2021/09/28 15:12:23;;;;;;;4.93;1.20;;;18.10;99.90;;;19.32;56.64;101033.81;6073805;23;20010;-86
2021/09/28 15:14:48;;;;;;;5.95;1.30;;;18.00;99.90;;;19.32;56.47;101039.47;6074775;23;20096;-87
2021/09/28 15:17:14;;;;;;;5.88;1.42;;;17.90;99.90;;;19.08;55.23;101045.97;6074981;23;20006;-85
2021/09/28 15:19:40;;;;;;;3.90;1.05;;;17.90;99.90;;;19.14;56.44;101041.53;6075297;23;20098;-83
2021/09/28 15:22:07;;;;;;;4.57;1.27;;;17.70;99.90;;;19.10;57.28;101034.28;6076146;23;20014;-82
2021/09/28 15:24:32;;;;;;;4.35;1.20;;;17.70;99.90;;;19.09;56.95;101030.63;6079063;23;20006;-85
2021/09/28 15:26:58;;;;;;;3.97;0.98;;;17.70;99.90;;;19.13;56.73;101036.28;6078820;23;20010;-86
2021/09/28 15:29:25;;;;;;;6.05;1.25;;;17.60;99.90;;;19.06;56.33;101030.63;6078770;23;20021;-86
2021/09/28 15:32:09;;;;;;;5.35;0.90;;;17.50;99.90;;;18.86;56.39;101028.22;6078491;23;20010;-88
2021/09/28 15:34:35;;;;;;;3.45;1.05;;;17.50;99.90;;;18.81;56.91;101027.84;6104950;23;20010;-83
2021/09/28 15:37:02;;;;;;;7.05;1.10;;;17.40;99.90;;;18.58;57.04;101033.88;6094997;23;20006;-84
2021/09/28 15:39:28;;;;;;;5.72;1.27;;;17.30;99.90;;;18.59;57.31;101034.72;6088117;23;20034;-84
2021/09/28 15:41:55;;;;;;;7.05;1.48;;;17.30;99.90;;;18.53;57.15;101022.97;6078467;23;20020;-85
2021/09/28 15:44:22;;;;;;;8.57;1.50;;;17.20;99.90;;;18.54;57.72;101029.44;6079071;23;20011;-85
2021/09/28 15:46:49;;;;;;;4.10;1.33;;;17.10;99.90;;;18.38;58.46;101030.59;6106545;23;20014;-85
2021/09/28 15:49:15;;;;;;;5.72;1.10;;;17.00;99.90;;;18.35;57.92;101030.59;6081185;23;20043;-86
2021/09/28 15:51:44;;;;;;;7.00;1.38;;;17.00;99.90;;;18.27;58.19;101020.47;6082135;23;20334;-86
2021/09/28 15:54:13;;;;;;;5.57;1.40;;;16.90;99.90;;;18.18;57.85;101026.53;6083039;23;20021;-87
2021/09/28 15:56:39;;;;;;;4.88;1.73;;;16.80;99.90;;;18.11;57.70;101020.84;6084495;23;20109;-86
2021/09/28 15:59:07;;;;;;;7.85;1.17;;;16.80;99.90;;;18.12;57.77;101021.66;6093046;23;20019;-86
2021/09/28 16:01:33;;;;;;;5.55;1.45;;;16.70;99.90;;;18.19;58.20;101016.03;6088754;23;20058;-85
2021/09/28 16:03:59;;;;;;;2.63;0.98;;;16.70;99.90;;;18.15;58.63;101026.50;6096557;23;19998;-84
2021/09/28 16:06:25;;;;;;;3.60;1.17;;;16.60;99.90;;;18.09;59.11;101023.28;6097578;23;20053;-85